createdAt,value
2022-09-03T00:00:30.549Z,1.90
2022-09-03T00:01:30.580Z,3.30
2022-09-03T00:02:30.572Z,1.90
2022-09-03T00:03:30.511Z,1.40
2022-09-03T00:04:30.542Z,1.70
2022-09-03T00:05:30.513Z,1.50
2022-09-03T00:06:30.488Z,1.70
2022-09-03T00:07:30.489Z,1.40
2022-09-03T00:08:30.450Z,1.60
2022-09-03T00:09:30.464Z,1.60
2022-09-03T00:10:30.414Z,1.80
2022-09-03T00:11:30.452Z,1.70
2022-09-03T00:12:30.408Z,2.00
2022-09-03T00:13:30.380Z,1.30
2022-09-03T00:14:30.376Z,1.40
2022-09-03T00:15:30.363Z,1.60
2022-09-03T00:16:30.324Z,1.60
2022-09-03T00:17:30.328Z,1.60
2022-09-03T00:18:30.306Z,1.60
2022-09-03T00:19:30.296Z,1.50
2022-09-03T00:20:30.298Z,1.20
2022-09-03T00:21:30.277Z,1.60
2022-09-03T00:22:30.235Z,1.50
2022-09-03T00:23:30.285Z,1.50
2022-09-03T00:24:30.216Z,1.30
2022-09-03T00:25:30.239Z,1.60
2022-09-03T00:26:30.211Z,1.40
2022-09-03T00:27:30.217Z,1.50
2022-09-03T00:28:30.169Z,1.50
2022-09-03T00:29:30.175Z,1.30
2022-09-03T00:30:30.140Z,1.20
2022-09-03T00:31:30.171Z,1.40
2022-09-03T00:32:30.102Z,1.40
2022-09-03T00:33:30.124Z,1.40
2022-09-03T00:34:30.090Z,1.40
2022-09-03T00:35:30.076Z,1.10
2022-09-03T00:36:30.057Z,1.60
2022-09-03T00:37:30.071Z,1.50
2022-09-03T00:38:31.042Z,1.20
2022-09-03T00:39:30.058Z,1.10
2022-09-03T00:40:30.038Z,1.10
2022-09-03T00:41:29.985Z,1.40
2022-09-03T00:42:30.014Z,1.50
2022-09-03T00:43:29.963Z,1.30
2022-09-03T00:44:29.975Z,1.40
2022-09-03T00:45:29.975Z,1.20
2022-09-03T00:46:30.128Z,1.60
2022-09-03T00:47:29.908Z,1.30
2022-09-03T00:48:30.093Z,1.40
2022-09-03T00:49:29.879Z,1.50
2022-09-03T00:50:29.875Z,1.60
2022-09-03T00:51:29.852Z,1.50
2022-09-03T00:52:33.558Z,1.70
2022-09-03T00:53:29.836Z,2.00
2022-09-03T00:54:29.798Z,1.60
2022-09-03T00:55:29.826Z,1.70
2022-09-03T00:56:29.784Z,1.70
2022-09-03T00:57:29.776Z,2.00
2022-09-03T00:58:29.781Z,1.60
2022-09-03T00:59:29.768Z,1.70
2022-09-03T01:00:29.729Z,2.00
2022-09-03T01:01:29.864Z,1.70
2022-09-03T01:02:29.809Z,1.70
2022-09-03T01:03:29.683Z,1.50
2022-09-03T01:04:29.682Z,1.70
2022-09-03T01:05:29.676Z,1.50
2022-09-03T01:06:29.652Z,1.60
2022-09-03T01:07:29.653Z,1.50
2022-09-03T01:08:29.618Z,1.80
2022-09-03T01:09:29.614Z,1.50
2022-09-03T01:10:29.604Z,1.70
2022-09-03T01:11:30.281Z,1.80
2022-09-03T01:12:29.603Z,1.50
2022-09-03T01:13:29.622Z,1.70
2022-09-03T01:14:29.531Z,1.80
2022-09-03T01:15:29.758Z,2.00
2022-09-03T01:16:29.507Z,3.70
2022-09-03T01:17:29.612Z,2.60
2022-09-03T01:18:29.473Z,1.70
2022-09-03T01:19:29.494Z,1.80
2022-09-03T01:20:29.486Z,1.80
2022-09-03T01:21:29.517Z,1.90
2022-09-03T01:22:29.438Z,1.60
2022-09-03T01:23:29.438Z,1.70
2022-09-03T01:24:29.430Z,1.90
2022-09-03T01:25:29.393Z,1.60
2022-09-03T01:26:29.367Z,1.70
2022-09-03T01:27:29.374Z,1.80
2022-09-03T01:28:29.356Z,2.10
2022-09-03T01:29:29.356Z,1.70
2022-09-03T01:30:29.323Z,1.50
2022-09-03T01:31:29.374Z,1.80
2022-09-03T01:32:29.305Z,1.80
2022-09-03T01:33:29.289Z,1.30
2022-09-03T01:34:29.262Z,1.30
2022-09-03T01:35:29.280Z,1.70
2022-09-03T01:36:29.227Z,1.70
2022-09-03T01:37:29.226Z,1.40
2022-09-03T01:38:29.351Z,1.50
2022-09-03T01:39:29.259Z,1.30
2022-09-03T01:40:29.177Z,1.20
2022-09-03T01:41:29.189Z,1.20
2022-09-03T01:42:29.161Z,1.40
2022-09-03T01:43:29.158Z,1.50
2022-09-03T01:44:30.193Z,1.50
2022-09-03T01:45:29.157Z,1.30
2022-09-03T01:46:29.104Z,1.70
2022-09-03T01:47:29.134Z,1.20
2022-09-03T01:48:29.079Z,1.50
2022-09-03T01:49:29.085Z,1.30
2022-09-03T01:50:29.093Z,1.20
2022-09-03T01:51:29.046Z,1.40
2022-09-03T01:52:29.008Z,1.20
2022-09-03T01:53:29.032Z,1.30
2022-09-03T01:54:28.985Z,1.50
2022-09-03T01:55:29.027Z,1.30
2022-09-03T01:56:28.961Z,1.50
2022-09-03T01:57:35.735Z,1.70
2022-09-03T01:58:29.936Z,1.60
2022-09-03T01:59:28.928Z,1.40
2022-09-03T02:00:28.910Z,1.70
2022-09-03T02:01:28.965Z,1.50
2022-09-03T02:02:28.936Z,1.40
2022-09-03T02:03:28.927Z,1.50
2022-09-03T02:04:28.917Z,1.30
2022-09-03T02:05:28.875Z,1.40
2022-09-03T02:06:28.841Z,1.30
2022-09-03T02:07:28.812Z,1.20
2022-09-03T02:08:28.805Z,1.30
2022-09-03T02:09:32.612Z,1.20
2022-09-03T02:10:28.792Z,1.20
2022-09-03T02:11:28.762Z,1.30
2022-09-03T02:12:28.738Z,1.90
2022-09-03T02:13:39.037Z,1.30
2022-09-03T02:14:37.838Z,1.30
2022-09-03T02:15:28.775Z,1.20
2022-09-03T02:16:38.362Z,1.60
2022-09-03T02:17:43.503Z,1.30
2022-09-03T02:18:38.887Z,1.40
2022-09-03T02:19:28.710Z,1.40
2022-09-03T02:20:28.726Z,1.50
2022-09-03T02:21:28.731Z,1.30
2022-09-03T02:22:28.683Z,1.40
2022-09-03T02:23:28.704Z,1.30
2022-09-03T02:24:28.622Z,1.60
2022-09-03T02:25:28.892Z,1.50
2022-09-03T02:26:28.601Z,1.70
2022-09-03T02:27:28.563Z,1.50
2022-09-03T02:28:28.730Z,1.20
2022-09-03T02:29:28.516Z,1.50
2022-09-03T02:30:28.520Z,1.30
2022-09-03T02:31:28.580Z,1.60
2022-09-03T02:32:28.493Z,1.30
2022-09-03T02:33:28.495Z,1.50
2022-09-03T02:34:28.444Z,1.40
2022-09-03T02:35:28.455Z,1.60
2022-09-03T02:36:28.476Z,1.70
2022-09-03T02:37:28.426Z,1.70
2022-09-03T02:39:40.967Z,1.60
2022-09-03T02:40:51.012Z,1.70
2022-09-03T02:41:50.982Z,1.50
2022-09-03T02:42:40.840Z,1.20
2022-09-03T02:43:40.996Z,1.50
2022-09-03T02:44:41.442Z,1.60
2022-09-03T02:45:40.662Z,1.50
2022-09-03T02:46:40.649Z,1.70
2022-09-03T02:47:40.586Z,1.70
2022-09-03T02:48:40.664Z,1.60
2022-09-03T02:49:40.635Z,1.50
2022-09-03T02:50:40.602Z,1.40
2022-09-03T02:51:40.601Z,1.20
2022-09-03T02:52:40.562Z,1.60
2022-09-03T02:53:40.519Z,1.70
2022-09-03T02:54:40.594Z,1.40
2022-09-03T02:55:40.593Z,1.40
2022-09-03T02:56:40.535Z,1.60
2022-09-03T02:57:40.506Z,1.60
2022-09-03T02:58:40.536Z,1.60
2022-09-03T02:59:40.456Z,1.50
2022-09-03T03:00:40.495Z,1.40
2022-09-03T03:01:40.468Z,1.40
2022-09-03T03:02:40.501Z,1.20
2022-09-03T03:03:40.422Z,1.50
2022-09-03T03:04:40.428Z,1.40
2022-09-03T03:05:40.432Z,1.40
2022-09-03T03:06:40.398Z,1.30
2022-09-03T03:07:40.351Z,1.30
2022-09-03T03:08:40.330Z,1.40
2022-09-03T03:09:40.367Z,1.80
2022-09-03T03:10:40.560Z,1.30
2022-09-03T03:11:40.393Z,1.50
2022-09-03T03:12:40.282Z,1.40
2022-09-03T03:13:40.342Z,1.40
2022-09-03T03:14:40.296Z,1.40
2022-09-03T03:15:40.259Z,1.30
2022-09-03T03:16:40.274Z,1.40
2022-09-03T03:17:40.223Z,1.20
2022-09-03T03:18:40.212Z,1.70
2022-09-03T03:19:40.236Z,1.70
2022-09-03T03:20:40.189Z,1.60
2022-09-03T03:21:40.219Z,1.10
2022-09-03T03:22:40.134Z,1.60
2022-09-03T03:23:40.135Z,1.40
2022-09-03T03:24:40.143Z,1.30
2022-09-03T03:25:40.092Z,1.30
2022-09-03T03:26:40.131Z,1.40
2022-09-03T03:27:40.044Z,1.30
2022-09-03T03:28:40.044Z,1.10
2022-09-03T03:29:40.095Z,1.20
2022-09-03T03:30:40.084Z,1.30
2022-09-03T03:31:40.090Z,1.30
2022-09-03T03:32:40.034Z,1.50
2022-09-03T03:33:39.997Z,2.00
2022-09-03T03:34:39.996Z,1.60
2022-09-03T03:35:40.060Z,1.50
2022-09-03T03:36:39.972Z,1.20
2022-09-03T03:37:39.957Z,1.40
2022-09-03T03:38:39.931Z,1.60
2022-09-03T03:39:40.018Z,1.40
2022-09-03T03:40:39.893Z,1.40
2022-09-03T03:41:39.929Z,1.40
2022-09-03T03:42:39.990Z,1.20
2022-09-03T03:43:39.927Z,1.30
2022-09-03T03:44:39.849Z,1.40
2022-09-03T03:45:39.865Z,1.30
2022-09-03T03:46:39.831Z,1.20
2022-09-03T03:47:39.839Z,1.30
2022-09-03T03:48:39.792Z,1.10
2022-09-03T03:49:39.770Z,1.50
2022-09-03T03:50:39.760Z,1.30
2022-09-03T03:51:39.737Z,1.60
2022-09-03T03:52:39.810Z,1.30
2022-09-03T03:53:39.751Z,1.30
2022-09-03T03:54:39.715Z,1.40
2022-09-03T03:55:39.713Z,1.20
2022-09-03T03:56:39.747Z,1.30
2022-09-03T03:57:39.679Z,1.30
2022-09-03T03:58:39.734Z,1.30
2022-09-03T03:59:39.672Z,1.40
2022-09-03T04:00:39.696Z,1.40
2022-09-03T04:01:39.706Z,1.20
2022-09-03T04:02:39.669Z,1.30
2022-09-03T04:03:39.599Z,1.00
2022-09-03T04:04:39.613Z,1.20
2022-09-03T04:05:46.181Z,1.20
2022-09-03T04:06:40.560Z,1.00
2022-09-03T04:07:39.644Z,1.40
2022-09-03T04:08:39.502Z,1.30
2022-09-03T04:09:39.529Z,1.60
2022-09-03T04:10:39.521Z,1.20
2022-09-03T04:11:39.490Z,1.10
2022-09-03T04:12:39.474Z,1.30
2022-09-03T04:13:39.476Z,1.30
2022-09-03T04:14:39.720Z,1.60
2022-09-03T04:15:39.487Z,1.60
2022-09-03T04:16:39.488Z,1.50
2022-09-03T04:17:39.447Z,1.50
2022-09-03T04:18:39.446Z,1.70
2022-09-03T04:19:39.408Z,1.20
2022-09-03T04:20:39.412Z,1.20
2022-09-03T04:21:39.426Z,1.30
2022-09-03T04:22:39.340Z,1.50
2022-09-03T04:23:39.324Z,1.40
2022-09-03T04:24:39.414Z,1.40
2022-09-03T04:25:39.646Z,1.40
2022-09-03T04:26:39.346Z,1.70
2022-09-03T04:27:40.196Z,1.60
2022-09-03T04:28:39.381Z,1.90
2022-09-03T04:29:39.313Z,1.90
2022-09-03T04:30:39.335Z,1.50
2022-09-03T04:31:39.297Z,1.60
2022-09-03T04:32:39.288Z,1.60
2022-09-03T04:33:39.318Z,1.50
2022-09-03T04:34:39.239Z,1.70
2022-09-03T04:35:39.183Z,1.30
2022-09-03T04:36:39.197Z,1.50
2022-09-03T04:37:39.359Z,1.40
2022-09-03T04:38:39.250Z,1.50
2022-09-03T04:39:39.405Z,1.60
2022-09-03T04:40:39.149Z,1.60
2022-09-03T04:41:39.129Z,1.90
2022-09-03T04:42:39.106Z,1.50
2022-09-03T04:43:39.082Z,1.70
2022-09-03T04:44:39.055Z,1.60
2022-09-03T04:45:39.111Z,1.50
2022-09-03T04:46:39.168Z,1.60
2022-09-03T04:47:39.027Z,2.10
2022-09-03T04:48:39.139Z,2.50
2022-09-03T04:49:39.065Z,1.80
2022-09-03T04:50:38.991Z,1.80
2022-09-03T04:51:38.927Z,1.50
2022-09-03T04:52:38.969Z,1.50
2022-09-03T04:53:38.942Z,1.80
2022-09-03T04:54:38.906Z,1.70
2022-09-03T04:55:39.203Z,1.40
2022-09-03T04:56:38.925Z,1.60
2022-09-03T04:57:38.874Z,1.80
2022-09-03T04:58:39.059Z,1.70
2022-09-03T04:59:38.904Z,1.40
2022-09-03T05:00:38.866Z,1.60
2022-09-03T05:01:38.937Z,1.40
2022-09-03T05:02:38.995Z,1.70
2022-09-03T05:03:38.794Z,1.60
2022-09-03T05:04:38.800Z,1.60
2022-09-03T05:05:38.805Z,1.30
2022-09-03T05:06:38.795Z,1.70
2022-09-03T05:07:38.850Z,1.40
2022-09-03T05:08:38.799Z,1.60
2022-09-03T05:09:38.777Z,1.70
2022-09-03T05:10:38.759Z,1.60
2022-09-03T05:11:38.715Z,1.40
2022-09-03T05:12:38.662Z,2.00
2022-09-03T05:13:38.709Z,1.60
2022-09-03T05:14:38.665Z,1.80
2022-09-03T05:15:38.856Z,1.80
2022-09-03T05:16:38.748Z,1.90
2022-09-03T05:17:38.654Z,1.50
2022-09-03T05:18:38.642Z,2.00
2022-09-03T05:19:38.562Z,1.50
2022-09-03T05:20:38.579Z,1.50
2022-09-03T05:21:38.665Z,1.30
2022-09-03T05:22:38.677Z,1.40
2022-09-03T05:23:38.559Z,1.60
2022-09-03T05:24:38.529Z,1.70
2022-09-03T05:25:38.693Z,1.40
2022-09-03T05:26:38.507Z,1.60
2022-09-03T05:27:38.523Z,1.40
2022-09-03T05:28:38.450Z,1.30
2022-09-03T05:29:38.476Z,1.60
2022-09-03T05:30:38.624Z,1.50
2022-09-03T05:31:38.461Z,1.80
2022-09-03T05:32:38.433Z,1.50
2022-09-03T05:33:38.343Z,1.30
2022-09-03T05:34:38.411Z,1.90
2022-09-03T05:35:38.436Z,1.10
2022-09-03T05:36:38.380Z,1.50
2022-09-03T05:37:38.387Z,1.10
2022-09-03T05:38:38.328Z,1.50
2022-09-03T05:39:38.333Z,1.60
2022-09-03T05:40:38.397Z,1.30
2022-09-03T05:41:38.285Z,1.40
2022-09-03T05:42:38.355Z,1.20
2022-09-03T05:43:38.213Z,1.40
2022-09-03T05:44:38.227Z,1.70
2022-09-03T05:45:38.767Z,1.30
2022-09-03T05:46:38.209Z,1.30
2022-09-03T05:47:38.175Z,1.40
2022-09-03T05:48:38.168Z,1.20
2022-09-03T05:49:38.209Z,1.40
2022-09-03T05:50:38.158Z,1.30
2022-09-03T05:51:38.163Z,1.70
2022-09-03T05:52:38.128Z,1.60
2022-09-03T05:53:38.117Z,1.60
2022-09-03T05:54:38.072Z,1.30
2022-09-03T05:55:38.155Z,1.30
2022-09-03T05:56:38.100Z,1.50
2022-09-03T05:57:38.079Z,1.40
2022-09-03T05:58:38.091Z,1.70
2022-09-03T05:59:38.103Z,1.40
2022-09-03T06:00:38.034Z,1.60
2022-09-03T06:01:38.051Z,1.70
2022-09-03T06:02:38.101Z,1.40
2022-09-03T06:03:38.135Z,1.50
2022-09-03T06:04:37.970Z,1.60
2022-09-03T06:05:37.953Z,1.70
2022-09-03T06:06:37.966Z,1.70
2022-09-03T06:07:37.924Z,1.40
2022-09-03T06:08:37.904Z,1.40
2022-09-03T06:09:37.893Z,1.70
2022-09-03T06:10:40.990Z,1.70
2022-09-03T06:11:37.904Z,1.60
2022-09-03T06:12:37.886Z,1.80
2022-09-03T06:13:37.851Z,1.50
2022-09-03T06:14:37.823Z,1.80
2022-09-03T06:15:37.813Z,1.50
2022-09-03T06:16:37.937Z,1.50
2022-09-03T06:17:37.808Z,1.60
2022-09-03T06:18:37.748Z,1.90
2022-09-03T06:19:37.790Z,1.30
2022-09-03T06:20:37.774Z,1.80
2022-09-03T06:21:37.706Z,1.90
2022-09-03T06:22:37.679Z,1.80
2022-09-03T06:23:37.834Z,1.60
2022-09-03T06:24:37.679Z,1.40
2022-09-03T06:25:37.759Z,1.50
2022-09-03T06:26:37.678Z,1.90
2022-09-03T06:27:37.632Z,1.80
2022-09-03T06:28:37.719Z,1.80
2022-09-03T06:29:37.718Z,1.60
2022-09-03T06:30:37.650Z,2.20
2022-09-03T06:31:37.668Z,1.70
2022-09-03T06:32:37.592Z,2.10
2022-09-03T06:33:37.667Z,1.40
2022-09-03T06:34:37.591Z,1.70
2022-09-03T06:35:43.125Z,1.40
2022-09-03T06:36:38.553Z,1.90
2022-09-03T06:37:37.580Z,1.40
2022-09-03T06:38:37.542Z,1.80
2022-09-03T06:39:37.611Z,1.40
2022-09-03T06:40:37.493Z,1.80
2022-09-03T06:41:37.463Z,1.50
2022-09-03T06:42:37.425Z,1.80
2022-09-03T06:43:37.514Z,1.50
2022-09-03T06:44:37.417Z,1.60
2022-09-03T06:45:37.488Z,1.30
2022-09-03T06:46:37.530Z,1.70
2022-09-03T06:47:37.691Z,1.30
2022-09-03T06:48:37.349Z,1.70
2022-09-03T06:49:37.404Z,1.30
2022-09-03T06:50:37.353Z,1.40
2022-09-03T06:51:37.317Z,1.60
2022-09-03T06:52:37.405Z,1.70
2022-09-03T06:53:37.330Z,1.50
2022-09-03T06:54:37.283Z,1.50
2022-09-03T06:55:37.288Z,1.30
2022-09-03T06:56:40.305Z,1.40
2022-09-03T06:57:37.270Z,1.50
2022-09-03T06:58:37.224Z,1.70
2022-09-03T06:59:37.230Z,1.80
2022-09-03T07:00:37.276Z,1.20
2022-09-03T07:01:37.286Z,1.70
2022-09-03T07:02:40.592Z,1.60
2022-09-03T07:03:38.205Z,1.70
2022-09-03T07:04:37.172Z,1.30
2022-09-03T07:05:37.187Z,1.50
2022-09-03T07:06:37.121Z,1.40
2022-09-03T07:07:37.130Z,1.40
2022-09-03T07:08:37.081Z,1.20
2022-09-03T07:09:37.183Z,1.30
2022-09-03T07:10:37.204Z,1.40
2022-09-03T07:11:37.211Z,1.10
2022-09-03T07:12:45.861Z,1.40
2022-09-03T07:13:37.113Z,1.50
2022-09-03T07:14:37.063Z,1.20
2022-09-03T07:15:37.019Z,1.60
2022-09-03T07:16:37.166Z,1.40
2022-09-03T07:17:36.999Z,1.30
2022-09-03T07:18:36.964Z,1.10
2022-09-03T07:19:36.967Z,1.50
2022-09-03T07:20:36.938Z,1.10
2022-09-03T07:21:37.006Z,1.20
2022-09-03T07:22:36.906Z,1.60
2022-09-03T07:23:36.923Z,1.20
2022-09-03T07:24:36.901Z,1.30
2022-09-03T07:25:36.908Z,1.10
2022-09-03T07:26:36.892Z,1.20
2022-09-03T07:27:36.862Z,1.20
2022-09-03T07:28:36.825Z,1.30
2022-09-03T07:29:36.803Z,1.00
2022-09-03T07:30:36.833Z,1.00
2022-09-03T07:31:36.866Z,1.20
2022-09-03T07:32:36.799Z,1.30
2022-09-03T07:33:36.795Z,1.00
2022-09-03T07:34:36.940Z,1.50
2022-09-03T07:35:36.718Z,1.40
2022-09-03T07:36:36.711Z,1.10
2022-09-03T07:37:36.713Z,0.80
2022-09-03T07:38:37.407Z,0.90
2022-09-03T07:39:36.728Z,1.20
2022-09-03T07:40:36.689Z,1.00
2022-09-03T07:41:36.648Z,0.90
2022-09-03T07:42:36.618Z,1.10
2022-09-03T07:43:36.633Z,1.20
2022-09-03T07:44:36.627Z,1.00
2022-09-03T07:45:36.621Z,0.80
2022-09-03T07:46:36.673Z,0.80
2022-09-03T07:47:36.589Z,0.90
2022-09-03T07:48:37.628Z,1.10
2022-09-03T07:49:36.580Z,1.00
2022-09-03T07:50:36.518Z,0.70
2022-09-03T07:51:36.532Z,1.30
2022-09-03T07:52:36.509Z,1.00
2022-09-03T07:53:36.487Z,1.00
2022-09-03T07:54:36.489Z,1.10
2022-09-03T07:55:36.490Z,1.30
2022-09-03T07:56:36.449Z,0.80
2022-09-03T07:57:36.460Z,1.00
2022-09-03T07:58:36.429Z,1.10
2022-09-03T07:59:36.413Z,0.90
2022-09-03T08:00:36.439Z,0.80
2022-09-03T08:01:36.380Z,1.00
2022-09-03T08:02:36.403Z,1.10
2022-09-03T08:03:36.404Z,1.10
2022-09-03T08:04:36.332Z,0.80
2022-09-03T08:05:36.350Z,1.10
2022-09-03T08:06:36.306Z,1.00
2022-09-03T08:07:36.348Z,1.00
2022-09-03T08:08:36.300Z,1.10
2022-09-03T08:09:36.325Z,1.00
2022-09-03T08:10:36.279Z,1.00
2022-09-03T08:11:36.261Z,0.90
2022-09-03T08:12:36.246Z,0.90
2022-09-03T08:13:45.094Z,0.90
2022-09-03T08:14:36.228Z,1.00
2022-09-03T08:15:36.186Z,0.90
2022-09-03T08:16:36.233Z,1.10
2022-09-03T08:17:36.166Z,0.90
2022-09-03T08:18:36.148Z,1.00
2022-09-03T08:19:36.139Z,0.90
2022-09-03T08:20:36.138Z,1.00
2022-09-03T08:21:36.105Z,0.90
2022-09-03T08:22:36.109Z,1.00
2022-09-03T08:23:36.087Z,0.60
2022-09-03T08:24:36.070Z,1.00
2022-09-03T08:25:36.061Z,0.90
2022-09-03T08:26:36.057Z,1.20
2022-09-03T08:27:36.061Z,0.80
2022-09-03T08:28:36.040Z,1.00
2022-09-03T08:29:36.011Z,0.90
2022-09-03T08:30:35.980Z,1.10
2022-09-03T08:31:36.005Z,1.10
2022-09-03T08:32:35.982Z,0.70
2022-09-03T08:33:35.953Z,1.10
2022-09-03T08:34:35.928Z,0.80
2022-09-03T08:35:35.935Z,0.70
2022-09-03T08:36:35.903Z,1.00
2022-09-03T08:37:35.901Z,1.10
2022-09-03T08:38:35.895Z,0.90
2022-09-03T08:39:35.936Z,1.00
2022-09-03T08:40:35.857Z,1.30
2022-09-03T08:41:35.847Z,1.00
2022-09-03T08:42:35.840Z,1.20
2022-09-03T08:43:35.816Z,0.70
2022-09-03T08:44:35.818Z,0.80
2022-09-03T08:45:35.789Z,0.90
2022-09-03T08:46:35.832Z,1.10
2022-09-03T08:47:35.809Z,0.90
2022-09-03T08:48:35.799Z,0.70
2022-09-03T08:49:35.734Z,0.90
2022-09-03T08:50:35.730Z,0.80
2022-09-03T08:51:35.712Z,1.00
2022-09-03T08:52:35.691Z,0.90
2022-09-03T08:53:35.693Z,1.40
2022-09-03T08:54:35.660Z,0.90
2022-09-03T08:55:35.681Z,1.00
2022-09-03T08:56:35.642Z,0.90
2022-09-03T08:57:35.631Z,1.00
2022-09-03T08:58:35.623Z,1.20
2022-09-03T08:59:35.590Z,0.80
2022-09-03T09:00:35.592Z,1.30
2022-09-03T09:01:35.619Z,1.30
2022-09-03T09:02:35.658Z,0.90
2022-09-03T09:03:35.663Z,0.80
2022-09-03T09:04:35.534Z,0.80
2022-09-03T09:05:35.548Z,1.10
2022-09-03T09:06:35.504Z,0.90
2022-09-03T09:07:35.527Z,0.70
2022-09-03T09:08:35.486Z,0.80
2022-09-03T09:09:35.468Z,0.90
2022-09-03T09:10:35.457Z,0.90
2022-09-03T09:11:35.476Z,1.00
2022-09-03T09:12:41.285Z,0.80
2022-09-03T09:13:36.458Z,1.10
2022-09-03T09:14:35.396Z,0.80
2022-09-03T09:15:35.419Z,0.70
2022-09-03T09:16:35.378Z,1.10
2022-09-03T09:17:35.369Z,1.00
2022-09-03T09:18:35.350Z,0.80
2022-09-03T09:19:35.346Z,1.00
2022-09-03T09:20:35.312Z,0.90
2022-09-03T09:21:35.305Z,1.10
2022-09-03T09:22:35.294Z,0.90
2022-09-03T09:23:35.350Z,0.80
2022-09-03T09:24:35.264Z,1.00
2022-09-03T09:25:35.317Z,1.00
2022-09-03T09:26:35.242Z,0.90
2022-09-03T09:27:35.245Z,0.80
2022-09-03T09:28:35.245Z,0.70
2022-09-03T09:29:35.214Z,1.00
2022-09-03T09:30:35.187Z,1.10
2022-09-03T09:31:35.219Z,0.70
2022-09-03T09:32:35.151Z,1.00
2022-09-03T09:33:35.576Z,1.00
2022-09-03T09:34:35.153Z,0.60
2022-09-03T09:35:35.127Z,0.80
2022-09-03T09:36:35.097Z,0.90
2022-09-03T09:37:35.121Z,0.80
2022-09-03T09:38:35.082Z,0.70
2022-09-03T09:39:35.090Z,0.70
2022-09-03T09:40:35.094Z,0.60
2022-09-03T09:41:35.060Z,0.70
2022-09-03T09:42:35.054Z,0.60
2022-09-03T09:43:35.019Z,0.60
2022-09-03T09:44:35.002Z,0.70
2022-09-03T09:45:35.009Z,0.60
2022-09-03T09:46:35.110Z,0.70
2022-09-03T09:47:34.962Z,0.70
2022-09-03T09:48:34.975Z,0.70
2022-09-03T09:49:34.932Z,0.60
2022-09-03T09:50:34.907Z,0.90
2022-09-03T09:51:34.921Z,0.70
2022-09-03T09:52:34.931Z,0.60
2022-09-03T09:53:34.947Z,0.70
2022-09-03T09:54:34.879Z,0.70
2022-09-03T09:55:34.854Z,0.50
2022-09-03T09:56:34.934Z,0.90
2022-09-03T09:57:34.989Z,1.10
2022-09-03T09:58:34.814Z,0.70
2022-09-03T09:59:34.798Z,0.60
2022-09-03T10:00:34.918Z,0.70
2022-09-03T10:01:34.841Z,0.70
2022-09-03T10:02:34.810Z,0.70
2022-09-03T10:03:34.771Z,0.70
2022-09-03T10:04:34.718Z,0.80
2022-09-03T10:05:34.740Z,0.70
2022-09-03T10:06:34.717Z,0.70
2022-09-03T10:07:34.720Z,0.80
2022-09-03T10:08:34.743Z,0.60
2022-09-03T10:09:34.889Z,1.00
2022-09-03T10:10:34.681Z,0.70
2022-09-03T10:11:34.681Z,0.80
2022-09-03T10:12:34.638Z,0.60
2022-09-03T10:13:34.673Z,0.80
2022-09-03T10:14:34.656Z,0.90
2022-09-03T10:15:34.674Z,0.70
2022-09-03T10:16:34.595Z,0.70
2022-09-03T10:17:37.039Z,0.70
2022-09-03T10:18:34.565Z,0.70
2022-09-03T10:19:34.553Z,0.80
2022-09-03T10:20:34.535Z,0.80
2022-09-03T10:21:34.526Z,0.80
2022-09-03T10:22:35.330Z,0.80
2022-09-03T10:23:34.481Z,0.80
2022-09-03T10:24:34.459Z,0.60
2022-09-03T10:25:34.456Z,0.70
2022-09-03T10:26:34.436Z,0.60
2022-09-03T10:27:34.457Z,0.80
2022-09-03T10:28:34.413Z,0.80
2022-09-03T10:29:34.418Z,0.70
2022-09-03T10:30:34.391Z,0.70
2022-09-03T10:31:34.434Z,0.80
2022-09-03T10:32:38.955Z,0.80
2022-09-03T10:33:35.359Z,0.80
2022-09-03T10:34:34.325Z,0.70
2022-09-03T10:35:34.312Z,0.50
2022-09-03T10:36:34.332Z,0.80
2022-09-03T10:37:34.302Z,0.70
2022-09-03T10:38:34.311Z,0.60
2022-09-03T10:39:42.700Z,0.70
2022-09-03T10:40:35.254Z,0.70
2022-09-03T10:41:34.233Z,0.80
2022-09-03T10:42:34.236Z,0.60
2022-09-03T10:43:34.204Z,0.90
2022-09-03T10:44:34.216Z,0.90
2022-09-03T10:45:35.197Z,0.70
2022-09-03T10:46:34.240Z,0.80
2022-09-03T10:47:34.188Z,1.10
2022-09-03T10:48:34.178Z,1.10
2022-09-03T10:49:34.154Z,1.30
2022-09-03T10:50:34.141Z,0.90
2022-09-03T10:51:34.107Z,0.90
2022-09-03T10:52:34.163Z,1.00
2022-09-03T10:53:34.108Z,1.00
2022-09-03T10:54:34.067Z,1.00
2022-09-03T10:55:34.227Z,1.00
2022-09-03T10:56:34.064Z,0.80
2022-09-03T10:57:34.057Z,0.80
2022-09-03T10:58:34.464Z,0.80
2022-09-03T10:59:34.009Z,0.90
2022-09-03T11:00:34.021Z,1.30
2022-09-03T11:01:34.106Z,1.10
2022-09-03T11:02:34.076Z,0.90
2022-09-03T11:03:34.095Z,0.80
2022-09-03T11:04:36.346Z,0.80
2022-09-03T11:05:33.949Z,1.00
2022-09-03T11:06:33.960Z,0.90
2022-09-03T11:07:34.001Z,0.80
2022-09-03T11:08:33.883Z,0.90
2022-09-03T11:09:33.956Z,0.80
2022-09-03T11:10:33.905Z,1.10
2022-09-03T11:11:33.929Z,0.80
2022-09-03T11:12:33.876Z,1.10
2022-09-03T11:13:33.805Z,1.00
2022-09-03T11:14:33.927Z,0.90
2022-09-03T11:15:33.882Z,1.00
2022-09-03T11:16:33.811Z,1.00
2022-09-03T11:17:33.892Z,1.10
2022-09-03T11:18:33.747Z,0.80
2022-09-03T11:19:33.727Z,0.90
2022-09-03T11:20:33.732Z,1.00
2022-09-03T11:21:33.747Z,0.80
2022-09-03T11:22:33.695Z,1.10
2022-09-03T11:23:33.686Z,0.90
2022-09-03T11:24:33.696Z,0.90
2022-09-03T11:25:33.663Z,1.10
2022-09-03T11:26:33.668Z,1.50
2022-09-03T11:27:33.653Z,0.90
2022-09-03T11:28:33.625Z,0.90
2022-09-03T11:29:33.625Z,0.90
2022-09-03T11:30:33.659Z,0.90
2022-09-03T11:31:33.605Z,0.80
2022-09-03T11:32:33.601Z,0.90
2022-09-03T11:33:33.566Z,1.10
2022-09-03T11:34:33.577Z,0.80
2022-09-03T11:35:33.530Z,1.10
2022-09-03T11:36:33.560Z,0.90
2022-09-03T11:37:33.510Z,1.00
2022-09-03T11:38:33.491Z,0.90
2022-09-03T11:39:33.541Z,1.10
2022-09-03T11:40:33.556Z,1.00
2022-09-03T11:41:33.450Z,0.90
2022-09-03T11:42:33.442Z,1.00
2022-09-03T11:43:33.432Z,1.00
2022-09-03T11:44:33.431Z,1.20
2022-09-03T11:45:33.407Z,0.80
2022-09-03T11:46:33.464Z,1.10
2022-09-03T11:47:33.394Z,1.00
2022-09-03T11:48:33.365Z,1.10
2022-09-03T11:49:33.347Z,0.90
2022-09-03T11:50:33.414Z,0.80
2022-09-03T11:51:33.327Z,1.10
2022-09-03T11:52:33.340Z,0.70
2022-09-03T11:53:33.291Z,0.80
2022-09-03T11:54:33.285Z,0.70
2022-09-03T11:55:38.257Z,0.70
2022-09-03T11:56:34.282Z,1.10
2022-09-03T11:57:33.234Z,0.80
2022-09-03T11:58:33.230Z,0.80
2022-09-03T11:59:33.212Z,0.90
2022-09-03T12:00:33.198Z,0.70
2022-09-03T12:01:33.188Z,0.90
2022-09-03T12:02:33.292Z,0.80
2022-09-03T12:03:33.177Z,0.80
2022-09-03T12:04:33.206Z,0.90
2022-09-03T12:05:33.122Z,0.80
2022-09-03T12:06:33.120Z,1.00
2022-09-03T12:07:33.130Z,1.50
2022-09-03T12:08:33.100Z,1.40
2022-09-03T12:09:33.073Z,1.10
2022-09-03T12:10:33.076Z,0.90
2022-09-03T12:11:33.082Z,1.20
2022-09-03T12:12:33.051Z,0.80
2022-09-03T12:13:33.055Z,0.70
2022-09-03T12:14:33.024Z,0.80
2022-09-03T12:15:33.059Z,1.20
2022-09-03T12:16:32.990Z,0.90
2022-09-03T12:17:32.966Z,0.90
2022-09-03T12:18:32.963Z,0.80
2022-09-03T12:19:32.967Z,0.90
2022-09-03T12:20:32.940Z,0.70
2022-09-03T12:21:33.121Z,0.80
2022-09-03T12:22:32.913Z,1.00
2022-09-03T12:23:32.921Z,0.90
2022-09-03T12:24:37.087Z,1.20
2022-09-03T12:25:33.917Z,1.20
2022-09-03T12:26:32.974Z,0.80
2022-09-03T12:27:32.879Z,0.80
2022-09-03T12:28:32.841Z,0.70
2022-09-03T12:29:32.822Z,0.60
2022-09-03T12:30:32.861Z,0.80
2022-09-03T12:31:32.803Z,0.90
2022-09-03T12:32:32.773Z,0.70
2022-09-03T12:33:32.803Z,0.70
2022-09-03T12:34:32.756Z,0.70
2022-09-03T12:36:33.733Z,0.70
2022-09-03T12:38:44.509Z,1.00
2022-09-03T12:40:33.802Z,0.70
2022-09-03T12:41:32.767Z,0.80
2022-09-03T12:42:32.647Z,0.80
2022-09-03T12:43:42.441Z,0.70
2022-09-03T12:44:33.632Z,0.70
2022-09-03T12:46:09.871Z,0.80
2022-09-03T12:46:34.338Z,0.70
2022-09-03T12:47:36.507Z,0.80
2022-09-03T12:48:32.974Z,0.70
2022-09-03T12:49:32.579Z,0.70
2022-09-03T12:50:32.559Z,0.70
2022-09-03T12:51:50.719Z,0.80
2022-09-03T12:52:33.558Z,0.70
2022-09-03T12:53:32.513Z,0.80
2022-09-03T12:54:32.513Z,0.80
2022-09-03T12:55:32.502Z,0.90
2022-09-03T12:56:32.463Z,0.70
2022-09-03T12:57:33.115Z,0.90
2022-09-03T12:58:32.467Z,0.70
2022-09-03T12:59:32.437Z,0.50
2022-09-03T13:00:32.424Z,0.60
2022-09-03T13:01:32.480Z,0.60
2022-09-03T13:02:32.411Z,0.80
2022-09-03T13:03:32.378Z,0.80
2022-09-03T13:04:32.387Z,0.80
2022-09-03T13:05:32.347Z,0.80
2022-09-03T13:06:32.358Z,0.80
2022-09-03T13:07:32.352Z,0.60
2022-09-03T13:08:32.313Z,0.70
2022-09-03T13:09:32.298Z,0.50
2022-09-03T13:10:32.301Z,0.60
2022-09-03T13:11:32.298Z,0.60
2022-09-03T13:12:33.593Z,0.60
2022-09-03T13:13:32.249Z,0.70
2022-09-03T13:14:32.244Z,0.60
2022-09-03T13:15:32.236Z,0.80
2022-09-03T13:16:32.295Z,0.60
2022-09-03T13:17:32.216Z,0.60
2022-09-03T13:18:32.197Z,0.50
2022-09-03T13:19:32.173Z,0.60
2022-09-03T13:20:32.166Z,0.70
2022-09-03T13:21:32.131Z,0.80
2022-09-03T13:22:32.169Z,0.70